sensor_id;sensor_type;location;lat;lon;timestamp;temperature;humidity
16491;DHT22;8356;51.214;3.270;2023-08-01T00:00:17;461.00;2380.80
16491;DHT22;8356;51.214;3.270;2023-08-01T00:02:42;461.00;2380.80
16491;DHT22;8356;51.214;3.270;2023-08-01T00:05:09;461.00;2380.80
16491;DHT22;8356;51.214;3.270;2023-08-01T00:07:35;461.00;2380.80
16491;DHT22;8356;51.214;3.270;2023-08-01T00:10:01;461.00;2380.80
16491;DHT22;8356;51.214;3.270;2023-08-01T00:12:27;461.00;2380.80
16491;DHT22;8356;51.214;3.270;2023-08-01T00:14:52;461.00;2380.80
16491;DHT22;8356;51.214;3.270;2023-08-01T00:17:18;461.00;2380.80
16491;DHT22;8356;51.214;3.270;2023-08-01T00:19:44;460.90;2380.80
16491;DHT22;8356;51.214;3.270;2023-08-01T00:22:09;460.90;2380.80
16491;DHT22;8356;51.214;3.270;2023-08-01T00:24:35;460.80;2380.80
16491;DHT22;8356;51.214;3.270;2023-08-01T00:27:01;460.90;2380.80
16491;DHT22;8356;51.214;3.270;2023-08-01T00:29:27;460.90;2380.80
16491;DHT22;8356;51.214;3.270;2023-08-01T00:31:52;460.90;2380.80
16491;DHT22;8356;51.214;3.270;2023-08-01T00:34:18;460.90;2380.80
16491;DHT22;8356;51.214;3.270;2023-08-01T00:36:43;460.90;2380.80
16491;DHT22;8356;51.214;3.270;2023-08-01T00:39:09;460.90;2380.80
16491;DHT22;8356;51.214;3.270;2023-08-01T00:41:35;460.80;2380.80
16491;DHT22;8356;51.214;3.270;2023-08-01T00:44:00;460.90;2380.80
16491;DHT22;8356;51.214;3.270;2023-08-01T00:46:26;460.90;2380.80
16491;DHT22;8356;51.214;3.270;2023-08-01T00:48:53;460.80;2380.80
16491;DHT22;8356;51.214;3.270;2023-08-01T00:51:19;460.80;2380.80
16491;DHT22;8356;51.214;3.270;2023-08-01T00:53:45;460.90;2380.80
16491;DHT22;8356;51.214;3.270;2023-08-01T00:56:11;460.90;2380.80
16491;DHT22;8356;51.214;3.270;2023-08-01T00:58:37;460.80;2380.80
16491;DHT22;8356;51.214;3.270;2023-08-01T01:01:03;460.80;2380.80
16491;DHT22;8356;51.214;3.270;2023-08-01T01:03:29;460.80;2380.80
16491;DHT22;8356;51.214;3.270;2023-08-01T01:06:09;460.80;2380.80
16491;DHT22;8356;51.214;3.270;2023-08-01T01:08:36;460.80;2380.80
16491;DHT22;8356;51.214;3.270;2023-08-01T01:11:01;460.80;2380.80
16491;DHT22;8356;51.214;3.270;2023-08-01T01:13:27;460.80;2380.80
16491;DHT22;8356;51.214;3.270;2023-08-01T01:15:52;460.80;2380.80
16491;DHT22;8356;51.214;3.270;2023-08-01T01:18:18;460.80;2380.80
16491;DHT22;8356;51.214;3.270;2023-08-01T01:20:43;460.80;2380.80
16491;DHT22;8356;51.214;3.270;2023-08-01T01:23:09;460.80;2380.80
16491;DHT22;8356;51.214;3.270;2023-08-01T01:25:36;460.80;2380.80
16491;DHT22;8356;51.214;3.270;2023-08-01T01:28:04;460.80;2380.80
16491;DHT22;8356;51.214;3.270;2023-08-01T01:30:31;460.80;2380.80
16491;DHT22;8356;51.214;3.270;2023-08-01T01:33:00;460.90;2380.80
16491;DHT22;8356;51.214;3.270;2023-08-01T01:35:26;460.90;2380.80
16491;DHT22;8356;51.214;3.270;2023-08-01T01:37:51;460.90;2380.80
16491;DHT22;8356;51.214;3.270;2023-08-01T01:40:17;461.00;2380.80
16491;DHT22;8356;51.214;3.270;2023-08-01T01:42:43;460.90;2380.80
16491;DHT22;8356;51.214;3.270;2023-08-01T01:45:09;460.90;2380.80
16491;DHT22;8356;51.214;3.270;2023-08-01T01:47:35;461.00;2380.80
16491;DHT22;8356;51.214;3.270;2023-08-01T01:50:00;461.00;2380.80
16491;DHT22;8356;51.214;3.270;2023-08-01T01:52:26;461.00;2380.80
16491;DHT22;8356;51.214;3.270;2023-08-01T01:54:52;461.00;2380.80
16491;DHT22;8356;51.214;3.270;2023-08-01T01:57:17;461.00;2380.80
16491;DHT22;8356;51.214;3.270;2023-08-01T01:59:43;461.00;2380.80
16491;DHT22;8356;51.214;3.270;2023-08-01T02:02:08;461.00;2380.80
16491;DHT22;8356;51.214;3.270;2023-08-01T02:04:34;461.00;2380.80
16491;DHT22;8356;51.214;3.270;2023-08-01T02:07:00;461.00;2380.80
16491;DHT22;8356;51.214;3.270;2023-08-01T02:09:25;461.00;2380.80
16491;DHT22;8356;51.214;3.270;2023-08-01T02:11:51;461.00;2380.80
16491;DHT22;8356;51.214;3.270;2023-08-01T02:14:17;461.00;2380.80
16491;DHT22;8356;51.214;3.270;2023-08-01T02:16:42;461.00;2380.80
16491;DHT22;8356;51.214;3.270;2023-08-01T02:19:08;461.00;2380.80
16491;DHT22;8356;51.214;3.270;2023-08-01T02:21:33;461.00;2380.80
16491;DHT22;8356;51.214;3.270;2023-08-01T02:23:59;461.00;2380.80
16491;DHT22;8356;51.214;3.270;2023-08-01T02:26:25;461.00;2380.80
16491;DHT22;8356;51.214;3.270;2023-08-01T02:28:50;461.00;2380.80
16491;DHT22;8356;51.214;3.270;2023-08-01T02:31:16;461.00;2380.80
16491;DHT22;8356;51.214;3.270;2023-08-01T02:33:42;461.00;2380.80
16491;DHT22;8356;51.214;3.270;2023-08-01T02:36:08;461.00;2380.80
16491;DHT22;8356;51.214;3.270;2023-08-01T02:38:34;461.10;2380.80
16491;DHT22;8356;51.214;3.270;2023-08-01T02:40:59;461.10;2380.80
16491;DHT22;8356;51.214;3.270;2023-08-01T02:43:25;461.10;2380.80
16491;DHT22;8356;51.214;3.270;2023-08-01T02:45:50;461.10;2380.80
16491;DHT22;8356;51.214;3.270;2023-08-01T02:48:16;461.10;2380.80
16491;DHT22;8356;51.214;3.270;2023-08-01T02:50:42;461.00;2380.80
16491;DHT22;8356;51.214;3.270;2023-08-01T02:53:08;461.00;2380.80
16491;DHT22;8356;51.214;3.270;2023-08-01T02:55:33;461.00;2380.80
16491;DHT22;8356;51.214;3.270;2023-08-01T02:57:59;461.00;2380.80
16491;DHT22;8356;51.214;3.270;2023-08-01T03:00:25;461.00;2380.80
16491;DHT22;8356;51.214;3.270;2023-08-01T03:02:51;461.00;2380.80
16491;DHT22;8356;51.214;3.270;2023-08-01T03:05:17;461.00;2380.80
16491;DHT22;8356;51.214;3.270;2023-08-01T03:07:42;461.00;2380.80
16491;DHT22;8356;51.214;3.270;2023-08-01T03:10:08;461.00;2380.80
16491;DHT22;8356;51.214;3.270;2023-08-01T03:12:36;461.00;2380.80
16491;DHT22;8356;51.214;3.270;2023-08-01T03:15:02;461.00;2380.80
16491;DHT22;8356;51.214;3.270;2023-08-01T03:17:28;460.90;2380.80
16491;DHT22;8356;51.214;3.270;2023-08-01T03:19:54;460.90;2380.80
16491;DHT22;8356;51.214;3.270;2023-08-01T03:22:20;460.90;2380.80
16491;DHT22;8356;51.214;3.270;2023-08-01T03:24:45;460.90;2380.80
16491;DHT22;8356;51.214;3.270;2023-08-01T03:27:11;460.90;2380.80
16491;DHT22;8356;51.214;3.270;2023-08-01T03:29:37;461.00;2380.80
16491;DHT22;8356;51.214;3.270;2023-08-01T03:32:02;461.00;2380.80
16491;DHT22;8356;51.214;3.270;2023-08-01T03:34:28;461.00;2380.80
16491;DHT22;8356;51.214;3.270;2023-08-01T03:36:54;461.00;2380.80
16491;DHT22;8356;51.214;3.270;2023-08-01T03:39:19;461.00;2380.80
16491;DHT22;8356;51.214;3.270;2023-08-01T03:41:45;460.90;2380.80
16491;DHT22;8356;51.214;3.270;2023-08-01T03:44:11;461.00;2380.80
16491;DHT22;8356;51.214;3.270;2023-08-01T03:46:37;461.00;2380.80
16491;DHT22;8356;51.214;3.270;2023-08-01T03:49:02;461.00;2380.80
16491;DHT22;8356;51.214;3.270;2023-08-01T03:51:28;461.00;2380.80
16491;DHT22;8356;51.214;3.270;2023-08-01T03:53:53;461.00;2380.80
16491;DHT22;8356;51.214;3.270;2023-08-01T03:56:19;461.00;2380.80
16491;DHT22;8356;51.214;3.270;2023-08-01T03:58:45;461.10;2380.80
16491;DHT22;8356;51.214;3.270;2023-08-01T04:01:10;461.10;2380.80
16491;DHT22;8356;51.214;3.270;2023-08-01T04:03:36;461.10;2380.80
16491;DHT22;8356;51.214;3.270;2023-08-01T04:06:02;461.10;2380.80
16491;DHT22;8356;51.214;3.270;2023-08-01T04:08:28;461.10;2380.80
16491;DHT22;8356;51.214;3.270;2023-08-01T04:10:54;461.10;2380.80
16491;DHT22;8356;51.214;3.270;2023-08-01T04:13:19;461.10;2380.80
16491;DHT22;8356;51.214;3.270;2023-08-01T04:15:45;461.10;2380.80
16491;DHT22;8356;51.214;3.270;2023-08-01T04:18:11;461.10;2380.80
16491;DHT22;8356;51.214;3.270;2023-08-01T04:20:36;461.10;2380.80
16491;DHT22;8356;51.214;3.270;2023-08-01T04:23:02;461.10;2380.80
16491;DHT22;8356;51.214;3.270;2023-08-01T04:25:27;461.10;2380.80
16491;DHT22;8356;51.214;3.270;2023-08-01T04:27:53;461.10;2380.80
16491;DHT22;8356;51.214;3.270;2023-08-01T04:30:19;461.10;2380.80
16491;DHT22;8356;51.214;3.270;2023-08-01T04:32:44;461.10;2380.80
16491;DHT22;8356;51.214;3.270;2023-08-01T04:35:10;461.10;2380.80
16491;DHT22;8356;51.214;3.270;2023-08-01T04:37:36;461.10;2380.80
16491;DHT22;8356;51.214;3.270;2023-08-01T04:40:02;461.10;2380.80
16491;DHT22;8356;51.214;3.270;2023-08-01T04:42:28;461.20;2380.80
16491;DHT22;8356;51.214;3.270;2023-08-01T04:44:54;461.20;2380.80
16491;DHT22;8356;51.214;3.270;2023-08-01T04:47:20;461.20;2380.80
16491;DHT22;8356;51.214;3.270;2023-08-01T04:49:46;461.20;2380.80
16491;DHT22;8356;51.214;3.270;2023-08-01T04:52:12;461.20;2380.80
16491;DHT22;8356;51.214;3.270;2023-08-01T04:54:38;461.20;2380.80
16491;DHT22;8356;51.214;3.270;2023-08-01T04:57:04;461.20;2380.80
16491;DHT22;8356;51.214;3.270;2023-08-01T04:59:30;461.00;2380.80
16491;DHT22;8356;51.214;3.270;2023-08-01T05:01:56;461.30;2380.80
16491;DHT22;8356;51.214;3.270;2023-08-01T05:04:21;461.30;2380.80
16491;DHT22;8356;51.214;3.270;2023-08-01T05:06:47;461.30;2380.80
16491;DHT22;8356;51.214;3.270;2023-08-01T05:09:12;461.20;2380.80
16491;DHT22;8356;51.214;3.270;2023-08-01T05:11:38;461.20;2380.80
16491;DHT22;8356;51.214;3.270;2023-08-01T05:14:04;461.30;2380.80
16491;DHT22;8356;51.214;3.270;2023-08-01T05:16:29;461.30;2380.80
16491;DHT22;8356;51.214;3.270;2023-08-01T05:18:55;461.20;2380.80
16491;DHT22;8356;51.214;3.270;2023-08-01T05:21:20;461.20;2380.80
16491;DHT22;8356;51.214;3.270;2023-08-01T05:23:46;461.30;2380.80
16491;DHT22;8356;51.214;3.270;2023-08-01T05:26:12;461.30;2380.80
16491;DHT22;8356;51.214;3.270;2023-08-01T05:28:38;461.30;2380.80
16491;DHT22;8356;51.214;3.270;2023-08-01T05:31:03;461.30;2380.80
16491;DHT22;8356;51.214;3.270;2023-08-01T05:33:29;461.30;2380.80
16491;DHT22;8356;51.214;3.270;2023-08-01T05:35:55;461.30;2380.80
16491;DHT22;8356;51.214;3.270;2023-08-01T05:38:20;461.30;2380.80
16491;DHT22;8356;51.214;3.270;2023-08-01T05:40:46;461.30;2380.80
16491;DHT22;8356;51.214;3.270;2023-08-01T05:43:12;461.40;2380.80
16491;DHT22;8356;51.214;3.270;2023-08-01T05:45:38;461.40;2380.80
16491;DHT22;8356;51.214;3.270;2023-08-01T05:48:04;461.40;2380.80
16491;DHT22;8356;51.214;3.270;2023-08-01T05:50:29;461.50;2380.80
16491;DHT22;8356;51.214;3.270;2023-08-01T05:52:55;461.50;2380.80
16491;DHT22;8356;51.214;3.270;2023-08-01T05:55:21;461.50;2380.80
16491;DHT22;8356;51.214;3.270;2023-08-01T05:57:46;461.50;2380.80
16491;DHT22;8356;51.214;3.270;2023-08-01T06:00:14;461.50;2380.80
16491;DHT22;8356;51.214;3.270;2023-08-01T06:02:40;461.50;2380.80
16491;DHT22;8356;51.214;3.270;2023-08-01T06:05:06;461.50;2380.80
16491;DHT22;8356;51.214;3.270;2023-08-01T06:07:32;461.60;2380.80
16491;DHT22;8356;51.214;3.270;2023-08-01T06:09:57;461.60;2380.80
16491;DHT22;8356;51.214;3.270;2023-08-01T06:12:23;461.70;2380.80
16491;DHT22;8356;51.214;3.270;2023-08-01T06:14:50;461.70;2380.80
16491;DHT22;8356;51.214;3.270;2023-08-01T06:17:16;486.40;2380.80
16491;DHT22;8356;51.214;3.270;2023-08-01T06:19:41;486.40;2380.80
16491;DHT22;8356;51.214;3.270;2023-08-01T06:22:08;486.40;2380.80
16491;DHT22;8356;51.214;3.270;2023-08-01T06:24:33;486.40;2380.80
16491;DHT22;8356;51.214;3.270;2023-08-01T06:27:00;486.50;2380.80
16491;DHT22;8356;51.214;3.270;2023-08-01T06:29:25;486.50;2380.80
16491;DHT22;8356;51.214;3.270;2023-08-01T06:31:51;486.70;2380.80
16491;DHT22;8356;51.214;3.270;2023-08-01T06:34:17;486.70;2380.80
16491;DHT22;8356;51.214;3.270;2023-08-01T06:36:43;486.70;2380.80
16491;DHT22;8356;51.214;3.270;2023-08-01T06:39:08;486.80;2380.80
16491;DHT22;8356;51.214;3.270;2023-08-01T06:41:34;486.80;2380.80
16491;DHT22;8356;51.214;3.270;2023-08-01T06:44:00;486.70;2380.80
16491;DHT22;8356;51.214;3.270;2023-08-01T06:46:25;486.70;2380.80
16491;DHT22;8356;51.214;3.270;2023-08-01T06:48:51;486.80;2380.80
16491;DHT22;8356;51.214;3.270;2023-08-01T06:51:16;486.80;2380.80
16491;DHT22;8356;51.214;3.270;2023-08-01T06:53:42;486.80;2380.80
16491;DHT22;8356;51.214;3.270;2023-08-01T06:56:08;486.80;2380.80
16491;DHT22;8356;51.214;3.270;2023-08-01T06:58:34;486.80;2380.80
16491;DHT22;8356;51.214;3.270;2023-08-01T07:00:59;486.80;2380.80
16491;DHT22;8356;51.214;3.270;2023-08-01T07:03:25;486.70;2380.80
16491;DHT22;8356;51.214;3.270;2023-08-01T07:05:51;486.70;2380.80
16491;DHT22;8356;51.214;3.270;2023-08-01T07:08:16;486.60;2380.80
16491;DHT22;8356;51.214;3.270;2023-08-01T07:10:42;486.60;2380.80
16491;DHT22;8356;51.214;3.270;2023-08-01T07:13:07;486.60;2380.80
16491;DHT22;8356;51.214;3.270;2023-08-01T07:15:33;486.50;2380.80
16491;DHT22;8356;51.214;3.270;2023-08-01T07:17:59;486.50;2380.80
16491;DHT22;8356;51.214;3.270;2023-08-01T07:20:25;486.50;2380.80
16491;DHT22;8356;51.214;3.270;2023-08-01T07:22:51;486.60;2380.80
16491;DHT22;8356;51.214;3.270;2023-08-01T07:25:16;486.60;2380.80
16491;DHT22;8356;51.214;3.270;2023-08-01T07:27:42;486.80;2380.80
16491;DHT22;8356;51.214;3.270;2023-08-01T07:30:08;487.00;2380.80
16491;DHT22;8356;51.214;3.270;2023-08-01T07:32:35;487.10;2380.80
16491;DHT22;8356;51.214;3.270;2023-08-01T07:35:03;487.20;2380.80
16491;DHT22;8356;51.214;3.270;2023-08-01T07:37:29;487.10;2380.80
16491;DHT22;8356;51.214;3.270;2023-08-01T07:39:56;487.00;2380.80
16491;DHT22;8356;51.214;3.270;2023-08-01T07:42:22;512.00;2380.80
16491;DHT22;8356;51.214;3.270;2023-08-01T07:44:48;486.80;2380.80
16491;DHT22;8356;51.214;3.270;2023-08-01T07:47:13;486.90;2380.80
16491;DHT22;8356;51.214;3.270;2023-08-01T07:49:39;487.10;2380.80
16491;DHT22;8356;51.214;3.270;2023-08-01T07:52:05;512.00;2380.80
16491;DHT22;8356;51.214;3.270;2023-08-01T07:54:30;512.20;2380.80
16491;DHT22;8356;51.214;3.270;2023-08-01T07:56:56;512.20;2380.80
16491;DHT22;8356;51.214;3.270;2023-08-01T07:59:22;512.40;2380.80
16491;DHT22;8356;51.214;3.270;2023-08-01T08:01:47;512.60;2380.80
16491;DHT22;8356;51.214;3.270;2023-08-01T08:04:13;512.60;2380.80
16491;DHT22;8356;51.214;3.270;2023-08-01T08:06:40;512.60;2380.80
16491;DHT22;8356;51.214;3.270;2023-08-01T08:09:06;512.40;2380.80
16491;DHT22;8356;51.214;3.270;2023-08-01T08:11:31;512.60;2380.80
16491;DHT22;8356;51.214;3.270;2023-08-01T08:13:57;512.90;2380.80
16491;DHT22;8356;51.214;3.270;2023-08-01T08:16:22;512.90;2380.80
16491;DHT22;8356;51.214;3.270;2023-08-01T08:18:48;537.70;2406.40
16491;DHT22;8356;51.214;3.270;2023-08-01T08:21:14;537.60;2406.40
16491;DHT22;8356;51.214;3.270;2023-08-01T08:23:39;537.70;2406.40
16491;DHT22;8356;51.214;3.270;2023-08-01T08:26:05;537.80;2406.40
16491;DHT22;8356;51.214;3.270;2023-08-01T08:28:33;537.90;2406.40
16491;DHT22;8356;51.214;3.270;2023-08-01T08:31:00;538.10;2406.40
16491;DHT22;8356;51.214;3.270;2023-08-01T08:33:27;537.80;2406.40
16491;DHT22;8356;51.214;3.270;2023-08-01T08:35:52;537.90;2406.40
16491;DHT22;8356;51.214;3.270;2023-08-01T08:38:18;538.10;2406.40
16491;DHT22;8356;51.214;3.270;2023-08-01T08:41:09;538.10;2406.40
16491;DHT22;8356;51.214;3.270;2023-08-01T08:43:35;537.80;2406.40
16491;DHT22;8356;51.214;3.270;2023-08-01T08:46:02;537.80;2406.40
16491;DHT22;8356;51.214;3.270;2023-08-01T08:48:28;538.10;2406.40
16491;DHT22;8356;51.214;3.270;2023-08-01T08:50:57;563.20;2432.00
16491;DHT22;8356;51.214;3.270;2023-08-01T08:53:24;563.50;2432.00
16491;DHT22;8356;51.214;3.270;2023-08-01T08:55:50;563.30;2432.00
16491;DHT22;8356;51.214;3.270;2023-08-01T08:58:16;563.30;2432.00
16491;DHT22;8356;51.214;3.270;2023-08-01T09:00:42;563.30;2432.00
16491;DHT22;8356;51.214;3.270;2023-08-01T09:03:08;538.30;2406.40
16491;DHT22;8356;51.214;3.270;2023-08-01T09:05:48;538.30;2406.40
16491;DHT22;8356;51.214;3.270;2023-08-01T09:08:19;538.30;2406.40
16491;DHT22;8356;51.214;3.270;2023-08-01T09:10:47;538.10;2406.40
16491;DHT22;8356;51.214;3.270;2023-08-01T09:13:13;537.90;2406.40
16491;DHT22;8356;51.214;3.270;2023-08-01T09:15:40;537.90;2406.40
16491;DHT22;8356;51.214;3.270;2023-08-01T09:18:07;537.90;2406.40
16491;DHT22;8356;51.214;3.270;2023-08-01T09:20:43;537.80;2406.40
16491;DHT22;8356;51.214;3.270;2023-08-01T09:23:09;538.00;2406.40
16491;DHT22;8356;51.214;3.270;2023-08-01T09:25:36;537.80;2406.40
16491;DHT22;8356;51.214;3.270;2023-08-01T09:28:02;537.80;2406.40
16491;DHT22;8356;51.214;3.270;2023-08-01T09:30:27;537.80;2406.40
16491;DHT22;8356;51.214;3.270;2023-08-01T09:32:57;537.90;2406.40
16491;DHT22;8356;51.214;3.270;2023-08-01T09:35:24;537.70;2406.40
16491;DHT22;8356;51.214;3.270;2023-08-01T09:37:49;537.80;2406.40
16491;DHT22;8356;51.214;3.270;2023-08-01T09:40:15;537.80;2406.40
16491;DHT22;8356;51.214;3.270;2023-08-01T09:42:43;538.00;2406.40
16491;DHT22;8356;51.214;3.270;2023-08-01T09:45:13;563.30;2432.00
16491;DHT22;8356;51.214;3.270;2023-08-01T09:47:40;563.30;2432.00
16491;DHT22;8356;51.214;3.270;2023-08-01T09:50:06;563.40;2432.00
16491;DHT22;8356;51.214;3.270;2023-08-01T09:52:33;563.50;2432.00
16491;DHT22;8356;51.214;3.270;2023-08-01T09:54:58;563.50;2432.00
16491;DHT22;8356;51.214;3.270;2023-08-01T09:57:28;563.50;2432.00
16491;DHT22;8356;51.214;3.270;2023-08-01T09:59:56;563.40;2432.00
16491;DHT22;8356;51.214;3.270;2023-08-01T10:02:24;538.30;2406.40
16491;DHT22;8356;51.214;3.270;2023-08-01T10:04:52;538.50;2406.40
16491;DHT22;8356;51.214;3.270;2023-08-01T10:07:23;563.50;2432.00
16491;DHT22;8356;51.214;3.270;2023-08-01T10:09:50;538.30;2406.40
16491;DHT22;8356;51.214;3.270;2023-08-01T10:12:17;538.30;2406.40
16491;DHT22;8356;51.214;3.270;2023-08-01T10:14:44;537.90;2406.40
16491;DHT22;8356;51.214;3.270;2023-08-01T10:17:11;538.50;2406.40
16491;DHT22;8356;51.214;3.270;2023-08-01T10:19:37;538.10;2406.40
16491;DHT22;8356;51.214;3.270;2023-08-01T10:22:04;538.50;2406.40
16491;DHT22;8356;51.214;3.270;2023-08-01T10:24:32;538.40;2406.40
16491;DHT22;8356;51.214;3.270;2023-08-01T10:27:08;563.20;2432.00
16491;DHT22;8356;51.214;3.270;2023-08-01T10:29:37;563.20;2432.00
16491;DHT22;8356;51.214;3.270;2023-08-01T10:32:02;563.20;2432.00
16491;DHT22;8356;51.214;3.270;2023-08-01T10:34:28;563.40;2432.00
16491;DHT22;8356;51.214;3.270;2023-08-01T10:36:57;563.30;2432.00
16491;DHT22;8356;51.214;3.270;2023-08-01T10:39:25;564.10;2432.00
16491;DHT22;8356;51.214;3.270;2023-08-01T10:42:04;589.10;2432.00
16491;DHT22;8356;51.214;3.270;2023-08-01T10:44:31;589.50;2432.00
16491;DHT22;8356;51.214;3.270;2023-08-01T10:47:03;589.40;2432.00
16491;DHT22;8356;51.214;3.270;2023-08-01T10:49:39;589.50;2432.00
16491;DHT22;8356;51.214;3.270;2023-08-01T10:52:28;589.50;2432.00
16491;DHT22;8356;51.214;3.270;2023-08-01T10:55:00;589.40;2432.00
16491;DHT22;8356;51.214;3.270;2023-08-01T10:57:28;614.60;2432.00
16491;DHT22;8356;51.214;3.270;2023-08-01T10:59:55;589.50;2432.00
16491;DHT22;8356;51.214;3.270;2023-08-01T11:02:23;589.40;2432.00
16491;DHT22;8356;51.214;3.270;2023-08-01T11:05:04;589.00;2432.00
16491;DHT22;8356;51.214;3.270;2023-08-01T11:07:30;589.20;2432.00
16491;DHT22;8356;51.214;3.270;2023-08-01T11:12:39;614.60;2432.00
16491;DHT22;8356;51.214;3.270;2023-08-01T11:15:06;614.80;2432.00
16491;DHT22;8356;51.214;3.270;2023-08-01T11:17:34;614.60;2432.00
16491;DHT22;8356;51.214;3.270;2023-08-01T11:20:06;589.40;2432.00
16491;DHT22;8356;51.214;3.270;2023-08-01T11:22:33;589.00;2432.00
16491;DHT22;8356;51.214;3.270;2023-08-01T11:24:58;563.70;2432.00
16491;DHT22;8356;51.214;3.270;2023-08-01T11:27:26;589.00;2432.00
16491;DHT22;8356;51.214;3.270;2023-08-01T11:29:55;588.80;2432.00
16491;DHT22;8356;51.214;3.270;2023-08-01T11:32:21;589.50;2432.00
16491;DHT22;8356;51.214;3.270;2023-08-01T11:34:48;589.70;2432.00
16491;DHT22;8356;51.214;3.270;2023-08-01T11:37:17;589.70;2432.00
16491;DHT22;8356;51.214;3.270;2023-08-01T11:39:44;614.40;2432.00
16491;DHT22;8356;51.214;3.270;2023-08-01T11:42:17;614.60;2432.00
16491;DHT22;8356;51.214;3.270;2023-08-01T11:44:44;614.50;2432.00
16491;DHT22;8356;51.214;3.270;2023-08-01T11:47:16;589.70;2432.00
16491;DHT22;8356;51.214;3.270;2023-08-01T11:49:47;589.40;2432.00
16491;DHT22;8356;51.214;3.270;2023-08-01T11:52:26;589.20;2432.00
16491;DHT22;8356;51.214;3.270;2023-08-01T11:54:53;589.10;2432.00
16491;DHT22;8356;51.214;3.270;2023-08-01T11:57:20;588.80;2432.00
16491;DHT22;8356;51.214;3.270;2023-08-01T11:59:54;588.80;2432.00
16491;DHT22;8356;51.214;3.270;2023-08-01T12:02:24;588.90;2432.00
16491;DHT22;8356;51.214;3.270;2023-08-01T12:04:51;589.10;2432.00
16491;DHT22;8356;51.214;3.270;2023-08-01T12:07:16;589.10;2432.00
16491;DHT22;8356;51.214;3.270;2023-08-01T12:09:43;589.50;2432.00
16491;DHT22;8356;51.214;3.270;2023-08-01T12:12:09;588.80;2432.00
16491;DHT22;8356;51.214;3.270;2023-08-01T12:14:40;589.50;2432.00
16491;DHT22;8356;51.214;3.270;2023-08-01T12:17:06;589.40;2432.00
16491;DHT22;8356;51.214;3.270;2023-08-01T12:19:32;589.30;2432.00
16491;DHT22;8356;51.214;3.270;2023-08-01T12:21:59;589.00;2432.00
16491;DHT22;8356;51.214;3.270;2023-08-01T12:24:25;589.20;2432.00
16491;DHT22;8356;51.214;3.270;2023-08-01T12:26:50;589.30;2432.00
16491;DHT22;8356;51.214;3.270;2023-08-01T12:29:16;589.30;2432.00
16491;DHT22;8356;51.214;3.270;2023-08-01T12:31:41;589.50;2432.00
16491;DHT22;8356;51.214;3.270;2023-08-01T12:34:07;614.40;2432.00
16491;DHT22;8356;51.214;3.270;2023-08-01T12:36:33;614.60;2432.00
16491;DHT22;8356;51.214;3.270;2023-08-01T12:38:59;614.50;2432.00
16491;DHT22;8356;51.214;3.270;2023-08-01T12:41:24;589.50;2432.00
16491;DHT22;8356;51.214;3.270;2023-08-01T12:43:50;589.40;2432.00
16491;DHT22;8356;51.214;3.270;2023-08-01T12:46:16;589.60;2432.00
16491;DHT22;8356;51.214;3.270;2023-08-01T12:48:42;614.40;2432.00
16491;DHT22;8356;51.214;3.270;2023-08-01T12:51:08;614.70;2432.00
16491;DHT22;8356;51.214;3.270;2023-08-01T12:53:34;614.80;2432.00
16491;DHT22;8356;51.214;3.270;2023-08-01T12:55:59;615.00;2432.00
16491;DHT22;8356;51.214;3.270;2023-08-01T12:58:25;614.70;2432.00
16491;DHT22;8356;51.214;3.270;2023-08-01T13:00:50;589.70;2432.00
16491;DHT22;8356;51.214;3.270;2023-08-01T13:03:16;589.50;2432.00
16491;DHT22;8356;51.214;3.270;2023-08-01T13:05:42;589.20;2432.00
16491;DHT22;8356;51.214;3.270;2023-08-01T13:08:08;589.10;2432.00
16491;DHT22;8356;51.214;3.270;2023-08-01T13:10:36;589.00;2432.00
16491;DHT22;8356;51.214;3.270;2023-08-01T13:13:02;588.90;2432.00
16491;DHT22;8356;51.214;3.270;2023-08-01T13:15:29;564.10;2432.00
16491;DHT22;8356;51.214;3.270;2023-08-01T13:17:54;564.00;2432.00
16491;DHT22;8356;51.214;3.270;2023-08-01T13:20:20;564.00;2432.00
16491;DHT22;8356;51.214;3.270;2023-08-01T13:22:48;563.90;2432.00
16491;DHT22;8356;51.214;3.270;2023-08-01T13:25:14;564.00;2432.00
16491;DHT22;8356;51.214;3.270;2023-08-01T13:27:40;564.00;2432.00
16491;DHT22;8356;51.214;3.270;2023-08-01T13:30:06;563.90;2432.00
16491;DHT22;8356;51.214;3.270;2023-08-01T13:32:32;563.90;2432.00
16491;DHT22;8356;51.214;3.270;2023-08-01T13:34:57;563.80;2432.00
16491;DHT22;8356;51.214;3.270;2023-08-01T13:37:23;563.70;2432.00
16491;DHT22;8356;51.214;3.270;2023-08-01T13:39:49;563.70;2432.00
16491;DHT22;8356;51.214;3.270;2023-08-01T13:42:15;563.70;2432.00
16491;DHT22;8356;51.214;3.270;2023-08-01T13:44:40;563.80;2432.00
16491;DHT22;8356;51.214;3.270;2023-08-01T13:47:06;563.60;2432.00
16491;DHT22;8356;51.214;3.270;2023-08-01T13:49:32;563.60;2432.00
16491;DHT22;8356;51.214;3.270;2023-08-01T13:51:59;563.70;2432.00
16491;DHT22;8356;51.214;3.270;2023-08-01T13:54:25;563.90;2432.00
16491;DHT22;8356;51.214;3.270;2023-08-01T13:56:51;563.90;2432.00
16491;DHT22;8356;51.214;3.270;2023-08-01T13:59:18;564.00;2432.00
16491;DHT22;8356;51.214;3.270;2023-08-01T14:01:44;588.80;2432.00
16491;DHT22;8356;51.214;3.270;2023-08-01T14:04:10;588.80;2432.00
16491;DHT22;8356;51.214;3.270;2023-08-01T14:06:36;564.10;2432.00
16491;DHT22;8356;51.214;3.270;2023-08-01T14:09:01;564.00;2432.00
16491;DHT22;8356;51.214;3.270;2023-08-01T14:11:28;563.90;2432.00
16491;DHT22;8356;51.214;3.270;2023-08-01T14:13:53;564.00;2432.00
16491;DHT22;8356;51.214;3.270;2023-08-01T14:16:19;563.90;2432.00
16491;DHT22;8356;51.214;3.270;2023-08-01T14:18:45;563.90;2432.00
16491;DHT22;8356;51.214;3.270;2023-08-01T14:21:10;563.90;2432.00
16491;DHT22;8356;51.214;3.270;2023-08-01T14:23:36;563.90;2432.00
16491;DHT22;8356;51.214;3.270;2023-08-01T14:26:06;564.00;2432.00
16491;DHT22;8356;51.214;3.270;2023-08-01T14:28:32;564.10;2432.00
16491;DHT22;8356;51.214;3.270;2023-08-01T14:31:00;564.10;2432.00
16491;DHT22;8356;51.214;3.270;2023-08-01T14:33:27;588.80;2432.00
16491;DHT22;8356;51.214;3.270;2023-08-01T14:35:53;589.00;2432.00
16491;DHT22;8356;51.214;3.270;2023-08-01T14:38:19;589.00;2432.00
16491;DHT22;8356;51.214;3.270;2023-08-01T14:40:44;589.10;2432.00
16491;DHT22;8356;51.214;3.270;2023-08-01T14:43:10;589.20;2432.00
16491;DHT22;8356;51.214;3.270;2023-08-01T14:45:42;589.40;2432.00
16491;DHT22;8356;51.214;3.270;2023-08-01T14:48:08;589.30;2432.00
16491;DHT22;8356;51.214;3.270;2023-08-01T14:50:34;589.10;2432.00
16491;DHT22;8356;51.214;3.270;2023-08-01T14:53:00;589.00;2432.00
16491;DHT22;8356;51.214;3.270;2023-08-01T14:55:28;589.10;2432.00
16491;DHT22;8356;51.214;3.270;2023-08-01T14:57:54;589.10;2432.00
16491;DHT22;8356;51.214;3.270;2023-08-01T15:00:20;589.10;2432.00